Time;durP1;ratioP1;P1;durP2;ratioP2;P2;SDS_P1;SDS_P2;PMS_P1;PMS_P2;Temp;Humidity;BMP_temperature;BMP_pressure;BME280_temperature;BME280_humidity;BME280_pressure;Samples;Min_cycle;Max_cycle;Signal;HPM_P1;HPM_P2
2024/01/12 00:00:20;;;;;;;58.08;28.45;;;-4.80;99.90;;;;;;5132805;27;20189;-73
2024/01/12 00:02:45;;;;;;;59.73;30.90;;;-4.80;99.90;;;;;;5132967;27;20180;-73
2024/01/12 00:05:11;;;;;;;71.67;35.40;;;-4.80;99.90;;;;;;5114275;27;20504;-73
2024/01/12 00:07:37;;;;;;;113.50;45.37;;;-4.90;99.90;;;;;;5132708;27;20192;-73
2024/01/12 00:10:03;;;;;;;84.93;34.30;;;-4.90;99.90;;;;;;5114033;27;20226;-73
2024/01/12 00:12:29;;;;;;;71.28;33.70;;;-5.00;99.90;;;;;;5132458;27;20660;-73
2024/01/12 00:14:55;;;;;;;65.13;31.63;;;-5.20;99.90;;;;;;5132716;27;20241;-73
2024/01/12 00:17:20;;;;;;;53.97;30.07;;;-5.20;99.90;;;;;;5113740;27;20442;-73
2024/01/12 00:19:46;;;;;;;54.70;30.90;;;-5.20;99.90;;;;;;5132475;27;20421;-73
2024/01/12 00:22:12;;;;;;;58.00;29.33;;;-5.10;99.90;;;;;;5132693;27;20640;-73
2024/01/12 00:24:37;;;;;;;63.40;30.63;;;-5.00;99.90;;;;;;5132281;27;20185;-73
2024/01/12 00:27:03;;;;;;;59.97;32.20;;;-5.00;99.90;;;;;;5113888;27;20224;-73
2024/01/12 00:29:29;;;;;;;60.42;30.75;;;-4.90;99.90;;;;;;5132370;27;20204;-73
2024/01/12 00:31:56;;;;;;;64.53;31.10;;;-4.90;99.90;;;;;;5113739;27;20668;-73
2024/01/12 00:34:22;;;;;;;68.57;32.10;;;-4.90;99.90;;;;;;5132334;27;20177;-73
2024/01/12 00:36:48;;;;;;;58.83;30.58;;;-4.90;99.90;;;;;;5131951;27;20197;-73
2024/01/12 00:39:15;;;;;;;59.43;29.87;;;-5.10;99.90;;;;;;5132229;27;20722;-73
2024/01/12 00:41:41;;;;;;;63.15;31.27;;;-5.00;99.90;;;;;;5132046;27;20679;-73
2024/01/12 00:44:07;;;;;;;68.23;32.77;;;-5.00;99.90;;;;;;5132347;27;20228;-74
2024/01/12 00:46:33;;;;;;;71.13;34.70;;;-5.00;99.90;;;;;;5113554;27;20223;-73
2024/01/12 00:48:59;;;;;;;65.83;31.67;;;-5.10;99.90;;;;;;5131888;27;20529;-73
2024/01/12 00:51:24;;;;;;;67.43;29.93;;;-5.20;99.90;;;;;;5131992;27;20422;-73
2024/01/12 00:53:50;;;;;;;53.33;29.27;;;-5.20;99.90;;;;;;5113472;27;21047;-73
2024/01/12 00:56:16;;;;;;;63.33;31.30;;;-5.20;99.90;;;;;;5131584;27;20184;-73
2024/01/12 00:58:42;;;;;;;53.65;28.77;;;-5.20;99.90;;;;;;5113003;27;20565;-74
2024/01/12 01:01:09;;;;;;;64.23;28.43;;;-5.10;99.90;;;;;;5096024;27;20215;-73
2024/01/12 01:03:36;;;;;;;56.25;29.55;;;-5.10;99.90;;;;;;5131659;27;20169;-73
2024/01/12 01:06:02;;;;;;;54.13;29.17;;;-5.10;99.90;;;;;;5131886;27;20222;-73
2024/01/12 01:08:28;;;;;;;57.13;28.30;;;-5.10;99.90;;;;;;5131518;27;20676;-74
2024/01/12 01:10:53;;;;;;;55.10;28.30;;;-5.10;99.90;;;;;;5131496;27;20192;-73
2024/01/12 01:13:19;;;;;;;53.13;28.90;;;-5.10;99.90;;;;;;5131524;27;20719;-73
2024/01/12 01:15:45;;;;;;;59.93;29.30;;;-5.10;99.90;;;;;;5112785;27;20288;-74
2024/01/12 01:18:11;;;;;;;55.90;28.10;;;-5.10;99.90;;;;;;5112767;27;20445;-74
2024/01/12 01:20:37;;;;;;;58.40;29.50;;;-5.10;99.90;;;;;;5096110;27;20211;-74
2024/01/12 01:23:03;;;;;;;55.72;29.00;;;-5.20;99.90;;;;;;5131357;27;20280;-73
2024/01/12 01:25:29;;;;;;;55.20;28.50;;;-5.20;99.90;;;;;;5131767;27;20174;-73
2024/01/12 01:27:55;;;;;;;58.73;29.93;;;-5.10;99.90;;;;;;5112758;27;20992;-73
2024/01/12 01:30:21;;;;;;;59.13;27.70;;;-5.10;99.90;;;;;;5131212;27;20985;-74
2024/01/12 01:32:48;;;;;;;57.05;29.13;;;-5.10;99.90;;;;;;5131167;27;20191;-73
2024/01/12 01:35:15;;;;;;;57.83;28.30;;;-5.20;99.90;;;;;;5131255;27;20274;-73
2024/01/12 01:37:41;;;;;;;56.53;29.13;;;-5.20;99.90;;;;;;5112258;27;20213;-74
2024/01/12 01:40:07;;;;;;;51.10;28.60;;;-5.20;99.90;;;;;;5112628;27;20188;-74
2024/01/12 01:42:33;;;;;;;53.00;27.95;;;-5.20;99.90;;;;;;5130910;27;20525;-74
2024/01/12 01:44:59;;;;;;;54.85;30.63;;;-5.30;99.90;;;;;;5112868;27;20192;-74
2024/01/12 01:47:26;;;;;;;59.13;29.20;;;-5.30;99.90;;;;;;5130812;27;20201;-74
2024/01/12 01:49:52;;;;;;;52.88;27.35;;;-5.30;99.90;;;;;;5130701;27;20506;-73
2024/01/12 01:52:23;;;;;;;52.90;29.35;;;-5.30;99.90;;;;;;5130785;27;20173;-73
2024/01/12 01:54:49;;;;;;;47.60;27.48;;;-5.30;99.90;;;;;;5112830;27;20176;-73
2024/01/12 01:57:15;;;;;;;52.75;28.58;;;-5.30;99.90;;;;;;5094904;27;20687;-74
2024/01/12 01:59:41;;;;;;;57.03;27.50;;;-5.40;99.90;;;;;;5130722;27;20227;-74
2024/01/12 02:02:08;;;;;;;49.75;28.23;;;-5.40;99.90;;;;;;5130488;27;20473;-74
2024/01/12 02:04:34;;;;;;;51.53;28.63;;;-5.40;99.90;;;;;;5130580;27;20176;-74
2024/01/12 02:07:00;;;;;;;50.78;28.52;;;-5.30;99.90;;;;;;5129594;27;20197;-73
2024/01/12 02:09:28;;;;;;;55.78;29.67;;;-5.30;99.90;;;;;;5130396;27;20186;-73
2024/01/12 02:11:54;;;;;;;52.92;27.73;;;-5.30;99.90;;;;;;5111643;27;20187;-73
2024/01/12 02:14:20;;;;;;;57.27;27.23;;;-5.30;99.90;;;;;;5130229;27;20189;-74
2024/01/12 02:16:46;;;;;;;67.00;33.67;;;-5.40;99.90;;;;;;5130229;27;20418;-73
2024/01/12 02:19:11;;;;;;;53.23;27.10;;;-5.40;99.90;;;;;;5111744;27;20537;-73
2024/01/12 02:21:37;;;;;;;58.77;28.47;;;-5.60;99.90;;;;;;5111830;27;20462;-73
2024/01/12 02:24:03;;;;;;;50.93;27.00;;;-5.60;99.90;;;;;;5130213;27;20272;-73
2024/01/12 02:26:28;;;;;;;57.53;30.07;;;-5.60;99.90;;;;;;5111554;27;20241;-74
2024/01/12 02:28:54;;;;;;;54.87;29.90;;;-5.60;99.90;;;;;;5111347;27;20204;-73
2024/01/12 02:31:20;;;;;;;57.77;29.50;;;-5.40;99.90;;;;;;5111367;27;20226;-73
2024/01/12 02:33:48;;;;;;;58.30;29.40;;;-5.40;99.90;;;;;;5094258;27;20217;-74
2024/01/12 02:36:14;;;;;;;61.65;29.40;;;-5.30;99.90;;;;;;5129826;27;20243;-73
2024/01/12 02:38:40;;;;;;;51.00;28.00;;;-5.30;99.90;;;;;;5129884;27;20224;-74
2024/01/12 02:41:05;;;;;;;54.90;28.67;;;-5.20;99.90;;;;;;5111451;27;20222;-73
2024/01/12 02:43:31;;;;;;;64.47;30.90;;;-5.20;99.90;;;;;;5111437;27;20185;-73
2024/01/12 02:45:56;;;;;;;53.27;28.07;;;-5.30;99.90;;;;;;5111150;27;20247;-73
2024/01/12 02:48:22;;;;;;;58.63;29.43;;;-5.30;99.90;;;;;;5111105;27;20207;-73
2024/01/12 02:50:47;;;;;;;56.40;27.77;;;-5.30;99.90;;;;;;5129716;27;20188;-73
2024/01/12 02:53:13;;;;;;;52.57;28.60;;;-5.30;99.90;;;;;;5094200;27;20181;-73
2024/01/12 02:55:39;;;;;;;53.43;29.37;;;-5.30;99.90;;;;;;5129538;27;20734;-73
2024/01/12 02:58:04;;;;;;;50.03;26.10;;;-5.30;99.90;;;;;;5129565;27;20219;-73
2024/01/12 03:00:30;;;;;;;57.77;30.30;;;-5.30;99.90;;;;;;5111115;27;20187;-73
2024/01/12 03:02:56;;;;;;;54.63;29.30;;;-5.20;99.90;;;;;;5094531;27;20283;-73
2024/01/12 03:05:22;;;;;;;57.42;29.42;;;-5.20;99.90;;;;;;5129813;27;20165;-73
2024/01/12 03:07:48;;;;;;;54.80;27.10;;;-5.20;99.90;;;;;;5129830;27;20207;-73
2024/01/12 03:10:16;;;;;;;56.07;29.20;;;-5.20;99.90;;;;;;5129937;27;20199;-73
2024/01/12 03:12:42;;;;;;;56.20;28.55;;;-5.20;99.90;;;;;;5129958;27;20651;-73
2024/01/12 03:15:08;;;;;;;59.53;29.40;;;-5.30;99.90;;;;;;5129403;27;20195;-73
2024/01/12 03:17:33;;;;;;;52.90;27.90;;;-5.30;99.90;;;;;;5129485;27;20687;-73
2024/01/12 03:19:59;;;;;;;53.97;27.87;;;-5.30;99.90;;;;;;5111293;28;20426;-73
2024/01/12 03:22:25;;;;;;;55.20;29.00;;;-5.40;99.90;;;;;;5129952;28;20759;-73
2024/01/12 03:24:50;;;;;;;54.10;29.40;;;-5.40;99.90;;;;;;5094770;28;20771;-73
2024/01/12 03:27:16;;;;;;;56.50;27.50;;;-5.50;99.90;;;;;;5111280;28;20299;-73
2024/01/12 03:29:41;;;;;;;49.77;25.90;;;-5.50;99.90;;;;;;5111282;28;20184;-73
2024/01/12 03:32:07;;;;;;;52.47;27.83;;;-5.50;99.90;;;;;;5111411;28;20185;-73
2024/01/12 03:34:32;;;;;;;57.83;26.80;;;-5.50;99.90;;;;;;5129713;28;20205;-73
2024/01/12 03:36:58;;;;;;;55.70;27.47;;;-5.50;99.90;;;;;;5111150;28;20687;-73
2024/01/12 03:39:24;;;;;;;52.60;26.80;;;-5.60;99.90;;;;;;5129656;28;20189;-73
2024/01/12 03:41:49;;;;;;;55.03;27.70;;;-5.60;99.90;;;;;;5129398;28;20334;-73
2024/01/12 03:44:15;;;;;;;48.80;27.20;;;-5.60;99.90;;;;;;5110994;28;20801;-73
2024/01/12 03:46:40;;;;;;;52.47;28.77;;;-5.60;99.90;;;;;;5129560;28;20189;-72
2024/01/12 03:49:06;;;;;;;57.40;29.07;;;-5.70;99.90;;;;;;5110847;28;20184;-73
2024/01/12 03:51:32;;;;;;;56.77;31.00;;;-5.60;99.90;;;;;;5110796;28;20656;-73
2024/01/12 03:53:58;;;;;;;57.03;30.30;;;-5.70;99.90;;;;;;5110749;28;20191;-73
2024/01/12 03:56:23;;;;;;;59.60;30.33;;;-5.60;99.90;;;;;;5129451;28;20421;-73
2024/01/12 03:58:49;;;;;;;53.27;26.10;;;-5.60;99.90;;;;;;5110619;28;20227;-73
2024/01/12 04:01:14;;;;;;;59.37;29.17;;;-5.60;99.90;;;;;;5129505;28;20216;-73
2024/01/12 04:03:40;;;;;;;53.17;27.30;;;-5.50;99.90;;;;;;5129274;28;20245;-73
2024/01/12 04:06:10;;;;;;;52.57;28.70;;;-5.50;99.90;;;;;;5129265;28;20198;-73
2024/01/12 04:08:35;;;;;;;62.80;32.65;;;-5.60;99.90;;;;;;5128943;28;20427;-73
2024/01/12 04:11:01;;;;;;;64.13;34.57;;;-5.60;99.90;;;;;;5128943;28;20201;-73
2024/01/12 04:13:26;;;;;;;60.83;30.70;;;-5.60;99.90;;;;;;5093769;28;20181;-73
2024/01/12 04:15:53;;;;;;;61.90;30.93;;;-5.70;99.90;;;;;;5129269;28;20252;-73
2024/01/12 04:18:18;;;;;;;57.22;29.85;;;-5.70;99.90;;;;;;5129291;28;20204;-73
2024/01/12 04:20:44;;;;;;;62.40;29.47;;;-5.70;99.90;;;;;;5110714;28;20224;-73
2024/01/12 04:23:10;;;;;;;59.23;29.70;;;-5.70;99.90;;;;;;5110606;28;20177;-73
2024/01/12 04:25:35;;;;;;;66.17;31.20;;;-5.60;99.90;;;;;;5129068;28;20268;-73
2024/01/12 04:28:01;;;;;;;54.10;27.87;;;-5.60;99.90;;;;;;5129081;28;20223;-73
2024/01/12 04:30:26;;;;;;;56.60;28.40;;;-5.60;99.90;;;;;;5111366;27;20181;-72
2024/01/12 04:32:53;;;;;;;59.93;29.80;;;-5.60;99.90;;;;;;5114261;27;20184;-73
2024/01/12 04:35:18;;;;;;;56.17;28.50;;;-5.50;99.90;;;;;;5132458;27;20176;-73
2024/01/12 04:37:44;;;;;;;54.07;29.37;;;-5.60;99.90;;;;;;5132447;27;20776;-74
2024/01/12 04:40:10;;;;;;;51.43;28.13;;;-5.60;99.90;;;;;;5132475;27;20199;-74
2024/01/12 04:42:36;;;;;;;53.30;28.37;;;-5.70;99.90;;;;;;5132356;27;20211;-74
2024/01/12 04:45:01;;;;;;;59.30;27.70;;;-5.70;99.90;;;;;;5132592;27;20438;-74
2024/01/12 04:47:27;;;;;;;52.87;28.00;;;-5.80;99.90;;;;;;5113674;27;20280;-74
2024/01/12 04:49:53;;;;;;;56.37;29.10;;;-5.90;99.90;;;;;;5113440;27;20227;-73
2024/01/12 04:52:18;;;;;;;54.90;28.70;;;-6.00;99.90;;;;;;5131962;27;20807;-73
2024/01/12 04:54:44;;;;;;;58.20;29.80;;;-6.00;99.90;;;;;;5131667;27;20183;-72
2024/01/12 04:57:09;;;;;;;58.40;27.80;;;-6.00;99.90;;;;;;5111802;27;20622;-73
2024/01/12 04:59:35;;;;;;;58.40;28.10;;;-5.90;99.90;;;;;;5130350;27;20563;-73
2024/01/12 05:02:00;;;;;;;59.73;29.27;;;-5.80;99.90;;;;;;5130201;27;20286;-73
2024/01/12 05:04:26;;;;;;;53.30;28.80;;;-5.80;99.90;;;;;;5130347;27;20268;-73
2024/01/12 05:06:52;;;;;;;74.97;29.67;;;-5.70;99.90;;;;;;5111385;27;20187;-73
2024/01/12 05:09:17;;;;;;;54.57;28.80;;;-5.70;99.90;;;;;;5130113;27;20203;-73
2024/01/12 05:11:43;;;;;;;56.00;27.70;;;-5.80;99.90;;;;;;5094164;27;20560;-73
2024/01/12 05:14:08;;;;;;;56.23;27.27;;;-5.80;99.90;;;;;;5130225;27;20183;-73
2024/01/12 05:16:34;;;;;;;56.83;28.10;;;-5.80;99.90;;;;;;5111430;27;20184;-73
2024/01/12 05:19:00;;;;;;;56.93;29.00;;;-5.80;99.90;;;;;;5111239;27;20689;-73
2024/01/12 05:21:25;;;;;;;53.90;28.97;;;-5.80;99.90;;;;;;5129913;27;20249;-73
2024/01/12 05:23:51;;;;;;;57.43;28.13;;;-5.80;99.90;;;;;;5129740;27;20285;-73
2024/01/12 05:26:16;;;;;;;52.57;30.13;;;-5.80;99.90;;;;;;5129919;27;20234;-73
2024/01/12 05:28:42;;;;;;;55.47;27.53;;;-5.80;99.90;;;;;;5111262;27;20568;-73
2024/01/12 05:31:11;;;;;;;55.93;27.97;;;-5.80;99.90;;;;;;5111209;27;20228;-73
2024/01/12 05:33:36;;;;;;;53.60;28.80;;;-5.80;99.90;;;;;;5129859;27;20193;-72
2024/01/12 05:36:02;;;;;;;54.13;28.50;;;-5.80;99.90;;;;;;5129584;27;20191;-72
2024/01/12 05:38:28;;;;;;;58.00;28.63;;;-5.90;99.90;;;;;;5129700;27;20286;-73
2024/01/12 05:40:53;;;;;;;58.67;30.53;;;-5.90;99.90;;;;;;5110890;27;20205;-72
2024/01/12 05:43:19;;;;;;;51.87;28.90;;;-5.90;99.90;;;;;;5128729;27;20184;-72
2024/01/12 05:45:45;;;;;;;54.20;28.17;;;-5.90;99.90;;;;;;5094413;27;20532;-73
2024/01/12 05:48:12;;;;;;;47.00;27.50;;;-5.90;99.90;;;;;;5111318;27;20828;-72
2024/01/12 05:50:37;;;;;;;62.05;29.80;;;-5.80;99.90;;;;;;5130252;27;20423;-73
2024/01/12 05:53:05;;;;;;;55.43;29.10;;;-5.80;99.90;;;;;;5095514;27;20179;-73
2024/01/12 05:55:30;;;;;;;56.28;29.73;;;-5.80;99.90;;;;;;5130916;27;20782;-73
2024/01/12 05:57:56;;;;;;;61.87;28.43;;;-5.90;99.90;;;;;;5130216;27;20283;-72
2024/01/12 06:00:21;;;;;;;51.50;28.47;;;-6.00;99.90;;;;;;5129505;27;20554;-73
2024/01/12 06:02:48;;;;;;;69.18;28.75;;;-6.00;99.90;;;;;;5094314;27;20204;-73
2024/01/12 06:05:13;;;;;;;59.27;30.70;;;-6.00;99.90;;;;;;5110940;27;20233;-73
2024/01/12 06:07:39;;;;;;;58.73;29.03;;;-6.10;99.90;;;;;;5110525;27;20206;-73
2024/01/12 06:10:06;;;;;;;63.50;30.00;;;-6.10;99.90;;;;;;5129150;27;20181;-73
2024/01/12 06:12:31;;;;;;;53.10;27.33;;;-6.10;99.90;;;;;;5129005;27;20208;-73
2024/01/12 06:14:59;;;;;;;62.23;29.73;;;-6.10;99.90;;;;;;5129248;27;20218;-73
2024/01/12 06:17:25;;;;;;;61.97;27.85;;;-6.20;99.90;;;;;;5093756;27;20218;-73
2024/01/12 06:19:51;;;;;;;52.57;28.53;;;-6.20;99.90;;;;;;5128814;27;20201;-73
2024/01/12 06:22:16;;;;;;;53.07;28.40;;;-6.20;99.90;;;;;;5093014;27;20228;-73
2024/01/12 06:24:42;;;;;;;56.73;27.63;;;-6.20;99.90;;;;;;5128586;27;20205;-73
2024/01/12 06:27:07;;;;;;;49.60;28.70;;;-6.10;99.90;;;;;;5110077;27;20206;-73
2024/01/12 06:29:34;;;;;;;55.47;30.00;;;-6.20;99.90;;;;;;5128616;27;20729;-73
2024/01/12 06:32:00;;;;;;;61.53;28.85;;;-6.20;99.90;;;;;;5109649;27;20195;-73
2024/01/12 06:34:26;;;;;;;56.25;28.63;;;-6.20;99.90;;;;;;5128460;27;20618;-73
2024/01/12 06:36:51;;;;;;;57.50;28.10;;;-6.20;99.90;;;;;;5109737;27;20200;-73
2024/01/12 06:39:17;;;;;;;50.40;28.57;;;-6.20;99.90;;;;;;5128404;27;20183;-73
2024/01/12 06:41:43;;;;;;;52.07;28.20;;;-6.20;99.90;;;;;;5092710;27;20224;-73
2024/01/12 06:44:09;;;;;;;60.27;27.80;;;-6.20;99.90;;;;;;5128280;27;20180;-73
2024/01/12 06:46:35;;;;;;;66.88;31.40;;;-6.20;99.90;;;;;;5128211;27;20443;-73
2024/01/12 06:49:01;;;;;;;52.00;28.63;;;-6.30;99.90;;;;;;5128029;27;20205;-73
2024/01/12 06:51:26;;;;;;;57.50;27.70;;;-6.30;99.90;;;;;;5109718;27;20191;-73
2024/01/12 06:53:52;;;;;;;54.90;27.90;;;-6.30;99.90;;;;;;5127680;27;20184;-73
2024/01/12 06:56:21;;;;;;;51.27;27.37;;;-6.30;99.90;;;;;;5128132;27;20270;-73
2024/01/12 06:58:47;;;;;;;54.08;28.70;;;-6.30;99.90;;;;;;5109180;27;20199;-73
2024/01/12 07:01:12;;;;;;;52.00;26.80;;;-6.30;99.90;;;;;;5127885;27;20221;-73
2024/01/12 07:03:38;;;;;;;51.80;24.93;;;-6.30;99.90;;;;;;5109288;27;20191;-73
2024/01/12 07:06:04;;;;;;;57.23;27.47;;;-6.30;99.90;;;;;;5092499;27;20658;-73
2024/01/12 07:08:29;;;;;;;54.10;28.88;;;-6.30;99.90;;;;;;5109124;27;20242;-73
2024/01/12 07:10:55;;;;;;;72.77;29.90;;;-6.40;99.90;;;;;;5092587;27;20208;-73
2024/01/12 07:13:20;;;;;;;55.73;27.93;;;-6.30;99.90;;;;;;5109342;27;20202;-73
2024/01/12 07:15:46;;;;;;;51.37;25.73;;;-6.40;99.90;;;;;;5127825;27;20191;-73
2024/01/12 07:18:11;;;;;;;50.20;28.03;;;-6.40;99.90;;;;;;5127767;27;20214;-73
2024/01/12 07:20:37;;;;;;;64.20;27.80;;;-6.30;99.90;;;;;;5109056;27;20678;-73
2024/01/12 07:23:03;;;;;;;56.83;28.67;;;-6.30;99.90;;;;;;5109519;28;20207;-73
2024/01/12 07:25:29;;;;;;;63.97;30.23;;;-6.20;99.90;;;;;;5127654;28;20524;-72
2024/01/12 07:27:55;;;;;;;66.30;31.88;;;-6.20;99.90;;;;;;5092240;28;20198;-73
2024/01/12 07:30:21;;;;;;;59.20;29.92;;;-6.20;99.90;;;;;;5127703;28;20180;-73
2024/01/12 07:32:46;;;;;;;57.33;29.40;;;-6.30;99.90;;;;;;5127861;28;20560;-73
2024/01/12 07:35:12;;;;;;;50.27;27.60;;;-6.30;99.90;;;;;;5109533;28;20211;-73
2024/01/12 07:37:38;;;;;;;60.53;28.13;;;-6.30;99.90;;;;;;5092384;28;20241;-73
2024/01/12 07:40:04;;;;;;;57.57;28.57;;;-6.30;99.90;;;;;;5128259;28;20701;-73
2024/01/12 07:42:30;;;;;;;52.25;26.63;;;-6.20;99.90;;;;;;5128319;28;20206;-73
2024/01/12 07:44:56;;;;;;;63.30;28.77;;;-6.20;99.90;;;;;;5128443;28;20556;-73
2024/01/12 07:47:22;;;;;;;58.65;28.52;;;-6.20;99.90;;;;;;5092884;28;20247;-71
2024/01/12 07:49:47;;;;;;;52.63;27.50;;;-6.10;99.90;;;;;;5128682;28;20185;-71
2024/01/12 07:52:13;;;;;;;56.20;29.60;;;-6.10;99.90;;;;;;5128867;28;20186;-71
2024/01/12 07:54:38;;;;;;;50.30;27.17;;;-6.10;99.90;;;;;;5110502;28;20187;-73
2024/01/12 07:57:04;;;;;;;51.03;27.77;;;-6.00;99.90;;;;;;5128607;28;20229;-73
2024/01/12 07:59:30;;;;;;;66.93;30.93;;;-6.00;99.90;;;;;;5128704;28;20191;-73
2024/01/12 08:01:55;;;;;;;57.57;28.23;;;-5.90;99.90;;;;;;5128245;28;20604;-73
2024/01/12 08:04:21;;;;;;;55.30;29.47;;;-5.80;99.90;;;;;;5109870;27;20180;-73
2024/01/12 08:06:47;;;;;;;54.05;29.00;;;-5.70;99.90;;;;;;5131276;27;20263;-73
2024/01/12 08:09:13;;;;;;;51.83;27.30;;;-5.50;99.90;;;;;;5132055;27;20267;-73
2024/01/12 08:11:39;;;;;;;56.58;30.05;;;-5.40;99.90;;;;;;5113376;27;20195;-73
2024/01/12 08:14:05;;;;;;;56.00;29.35;;;-4.90;99.90;;;;;;5131991;27;20181;-73
2024/01/12 08:16:32;;;;;;;63.47;31.00;;;-4.40;99.90;;;;;;5131672;27;20273;-73
2024/01/12 08:19:01;;;;;;;61.55;29.80;;;-3.70;99.90;;;;;;5131600;27;20193;-71
2024/01/12 08:21:26;;;;;;;50.72;27.23;;;-3.10;99.90;;;;;;5131595;27;20219;-73
2024/01/12 08:23:52;;;;;;;59.77;31.03;;;-2.50;99.90;;;;;;5132016;27;20181;-73
2024/01/12 08:26:19;;;;;;;55.83;31.10;;;-1.50;99.90;;;;;;5131507;27;20189;-73
2024/01/12 08:28:45;;;;;;;52.95;28.30;;;-0.50;99.90;;;;;;5113029;27;20197;-73
2024/01/12 08:31:11;;;;;;;50.00;28.98;;;0.70;99.90;;;;;;5095783;27;20189;-72
2024/01/12 08:33:37;;;;;;;51.65;28.58;;;1.70;99.90;;;;;;5131356;27;20196;-72
2024/01/12 08:36:04;;;;;;;57.47;32.47;;;2.70;99.90;;;;;;5130992;27;22440;-72
2024/01/12 08:38:30;;;;;;;58.05;34.72;;;3.30;99.90;;;;;;5095309;27;20271;-71
2024/01/12 08:40:55;;;;;;;73.20;36.60;;;4.10;99.90;;;;;;5130984;27;20221;-72
2024/01/12 08:43:22;;;;;;;68.85;37.35;;;4.50;98.80;;;;;;5131023;27;20637;-72
2024/01/12 08:45:48;;;;;;;81.23;44.30;;;5.00;97.00;;;;;;5130860;27;20181;-72
2024/01/12 08:48:13;;;;;;;99.13;54.20;;;5.40;94.60;;;;;;5078438;27;20205;-71
2024/01/12 08:50:39;;;;;;;97.90;55.43;;;5.90;93.20;;;;;;5130915;27;20253;-71
2024/01/12 08:53:04;;;;;;;77.10;48.53;;;6.30;91.50;;;;;;5130823;27;20173;-72
2024/01/12 08:55:30;;;;;;;81.73;49.83;;;6.40;90.70;;;;;;5131114;27;20683;-72
2024/01/12 08:57:56;;;;;;;78.60;48.93;;;6.50;90.00;;;;;;5130690;27;20201;-72
2024/01/12 09:00:21;;;;;;;73.07;46.63;;;6.70;89.20;;;;;;5112441;27;20276;-72
2024/01/12 09:02:47;;;;;;;69.17;45.03;;;7.00;88.10;;;;;;5130554;27;20577;-72
2024/01/12 09:05:12;;;;;;;69.40;45.67;;;7.20;84.90;;;;;;5130725;27;20181;-72
2024/01/12 09:07:38;;;;;;;71.63;45.60;;;7.10;83.50;;;;;;5111774;27;20205;-71
2024/01/12 09:10:04;;;;;;;76.50;46.70;;;7.10;83.00;;;;;;5130599;27;20929;-72
2024/01/12 09:12:29;;;;;;;80.90;47.50;;;7.00;81.80;;;;;;5130775;27;20290;-71
2024/01/12 09:14:55;;;;;;;77.50;45.70;;;6.60;82.10;;;;;;5112462;27;20424;-73
2024/01/12 09:17:21;;;;;;;73.13;46.67;;;5.80;83.30;;;;;;5130184;27;20198;-72
2024/01/12 09:19:47;;;;;;;74.10;46.33;;;4.70;86.40;;;;;;5112422;27;20193;-72
2024/01/12 09:22:12;;;;;;;74.37;44.20;;;3.70;90.50;;;;;;5112664;27;20462;-72
2024/01/12 09:24:38;;;;;;;67.37;41.83;;;2.60;93.60;;;;;;5131102;27;20250;-72
2024/01/12 09:27:04;;;;;;;67.63;40.90;;;1.90;98.40;;;;;;5095487;27;20204;-72
2024/01/12 09:29:29;;;;;;;73.10;40.93;;;1.50;99.90;;;;;;5095039;27;20280;-72
2024/01/12 09:31:55;;;;;;;73.30;39.90;;;1.00;99.90;;;;;;5130570;27;20652;-73
2024/01/12 09:34:20;;;;;;;71.23;39.80;;;0.80;99.90;;;;;;5112328;27;20298;-72
2024/01/12 09:36:46;;;;;;;80.60;40.00;;;0.70;99.90;;;;;;5130179;27;20202;-75
2024/01/12 09:39:14;;;;;;;77.80;42.80;;;0.70;99.90;;;;;;5130326;27;20266;-72
2024/01/12 09:41:49;;;;;;;68.30;36.33;;;1.00;99.90;;;;;;5111672;27;20234;-72
2024/01/12 09:44:22;;;;;;;67.60;37.83;;;1.40;99.90;;;;;;5130380;27;20186;-73
2024/01/12 09:46:57;;;;;;;66.43;39.83;;;2.80;99.90;;;;;;5130162;27;20442;-71
2024/01/12 09:49:28;;;;;;;67.20;39.93;;;4.20;99.90;;;;;;5130144;27;20415;-73
2024/01/12 09:51:58;;;;;;;63.23;37.07;;;5.20;96.10;;;;;;5130165;27;20436;-72
2024/01/12 09:54:24;;;;;;;63.93;39.07;;;6.00;93.60;;;;;;5129769;27;20423;-72
2024/01/12 09:56:51;;;;;;;64.47;41.97;;;6.80;91.10;;;;;;5130106;27;20441;-72
2024/01/12 09:59:19;;;;;;;63.67;40.60;;;7.30;89.00;;;;;;5130569;27;20683;-72
2024/01/12 10:01:45;;;;;;;64.07;40.57;;;7.70;87.20;;;;;;5112232;27;20971;-72
2024/01/12 10:04:10;;;;;;;71.90;43.03;;;8.20;84.40;;;;;;5130297;27;21069;-72
2024/01/12 10:06:36;;;;;;;59.70;40.40;;;8.60;82.70;;;;;;5130055;27;20414;-71
2024/01/12 10:09:03;;;;;;;64.27;42.60;;;9.10;80.60;;;;;;5130036;27;20688;-72
2024/01/12 10:11:29;;;;;;;63.97;43.70;;;9.60;79.10;;;;;;5129691;27;20415;-71
2024/01/12 10:13:55;;;;;;;59.03;41.70;;;10.20;75.80;;;;;;5129516;27;20408;-71
2024/01/12 10:16:28;;;;;;;64.57;42.80;;;10.60;73.50;;;;;;5129364;27;20425;-71
2024/01/12 10:18:58;;;;;;;75.53;47.80;;;10.80;72.00;;;;;;5129159;27;20207;-71
2024/01/12 10:21:24;;;;;;;77.70;45.93;;;11.20;70.10;;;;;;5111155;27;20456;-71
2024/01/12 10:23:59;;;;;;;74.47;46.23;;;11.20;68.30;;;;;;5110432;27;20425;-71
2024/01/12 10:26:25;;;;;;;69.17;45.50;;;11.10;66.80;;;;;;5129066;27;20409;-71
2024/01/12 10:28:50;;;;;;;71.67;43.23;;;11.10;66.10;;;;;;5128197;27;20501;-71
2024/01/12 10:31:16;;;;;;;66.60;43.07;;;11.30;66.30;;;;;;5128813;27;20175;-71
2024/01/12 10:33:42;;;;;;;64.33;42.53;;;11.40;65.20;;;;;;5110523;27;20176;-72
2024/01/12 10:36:18;;;;;;;60.43;41.60;;;11.40;63.80;;;;;;5128624;27;20195;-72
2024/01/12 10:38:45;;;;;;;63.50;42.40;;;11.90;63.00;;;;;;5110011;27;21064;-72
2024/01/12 10:41:11;;;;;;;63.73;42.13;;;12.00;62.70;;;;;;5129293;27;20464;-70
2024/01/12 10:43:38;;;;;;;63.80;44.60;;;12.10;62.00;;;;;;5110140;27;20796;-71
2024/01/12 10:46:16;;;;;;;68.47;46.13;;;11.90;60.60;;;;;;5110077;27;20414;-72
2024/01/12 10:48:54;;;;;;;73.60;48.97;;;12.20;61.00;;;;;;5128336;27;20445;-71
2024/01/12 10:51:25;;;;;;;59.53;41.70;;;12.40;61.10;;;;;;5128305;27;20419;-71
2024/01/12 10:54:01;;;;;;;64.40;43.13;;;12.40;60.80;;;;;;5130288;27;20422;-72
2024/01/12 10:56:28;;;;;;;65.97;44.80;;;12.00;59.80;;;;;;5110272;27;20569;-72
2024/01/12 10:58:54;;;;;;;62.87;42.67;;;11.60;59.40;;;;;;5128233;27;20444;-71
2024/01/12 11:01:20;;;;;;;62.03;41.70;;;11.90;60.60;;;;;;5109251;27;20469;-71
2024/01/12 11:03:47;;;;;;;66.07;42.37;;;11.90;60.40;;;;;;5128303;27;20180;-71
2024/01/12 11:06:16;;;;;;;71.53;43.67;;;12.20;60.00;;;;;;5128138;27;20491;-73
2024/01/12 11:08:43;;;;;;;67.63;43.90;;;11.80;59.20;;;;;;5128212;27;20453;-73
2024/01/12 11:11:11;;;;;;;69.57;41.13;;;11.80;60.50;;;;;;5128174;27;20853;-72
2024/01/12 11:13:37;;;;;;;63.50;43.03;;;11.40;62.20;;;;;;5109370;28;20499;-73
2024/01/12 11:16:03;;;;;;;69.97;43.77;;;11.40;61.60;;;;;;5128152;27;20421;-73
2024/01/12 11:18:29;;;;;;;88.70;48.97;;;11.20;61.00;;;;;;5109416;27;20445;-72
2024/01/12 11:21:02;;;;;;;68.70;44.23;;;11.20;61.70;;;;;;5127774;27;20563;-72
2024/01/12 11:23:28;;;;;;;66.10;42.40;;;10.90;60.80;;;;;;5127953;27;20178;-71
2024/01/12 11:25:54;;;;;;;70.40;40.27;;;10.80;60.90;;;;;;5127759;28;20408;-73
2024/01/12 11:28:19;;;;;;;67.50;43.00;;;10.60;62.00;;;;;;5109088;28;20198;-74
2024/01/12 11:30:50;;;;;;;71.40;42.70;;;10.10;63.30;;;;;;5109200;28;21003;-73
2024/01/12 11:33:19;;;;;;;65.23;40.40;;;10.00;64.00;;;;;;5109429;28;20181;-73
2024/01/12 11:35:51;;;;;;;69.40;43.43;;;9.70;66.10;;;;;;5127720;28;20983;-73
2024/01/12 11:38:18;;;;;;;73.70;47.90;;;9.40;66.00;;;;;;5128111;28;20506;-73
2024/01/12 11:40:48;;;;;;;70.33;42.87;;;9.20;66.40;;;;;;5130884;27;20415;-73
2024/01/12 11:43:17;;;;;;;65.10;41.90;;;9.20;67.80;;;;;;5132417;27;20536;-73
2024/01/12 11:45:44;;;;;;;72.03;41.73;;;8.90;69.00;;;;;;5131855;27;20854;-73
2024/01/12 11:48:14;;;;;;;66.27;39.90;;;9.00;69.90;;;;;;5113525;27;20443;-72
2024/01/12 11:50:41;;;;;;;63.20;39.13;;;9.00;68.90;;;;;;5131868;27;20418;-73
2024/01/12 11:53:08;;;;;;;63.70;42.00;;;8.80;68.00;;;;;;5112998;27;20463;-73
2024/01/12 11:55:36;;;;;;;69.83;40.87;;;8.20;68.80;;;;;;5096669;27;20529;-72
2024/01/12 11:58:02;;;;;;;64.30;40.93;;;8.00;70.90;;;;;;5131743;27;20430;-72
2024/01/12 12:00:27;;;;;;;71.30;41.90;;;7.50;73.40;;;;;;5096083;27;20421;-72
2024/01/12 12:02:53;;;;;;;63.10;40.67;;;7.20;75.90;;;;;;5116522;27;20505;-72
2024/01/12 12:05:19;;;;;;;72.20;41.80;;;7.00;77.10;;;;;;5131654;27;20200;-72
2024/01/12 12:07:45;;;;;;;69.07;41.27;;;6.60;78.80;;;;;;5131394;27;20454;-73
2024/01/12 12:10:10;;;;;;;64.97;38.60;;;6.40;81.60;;;;;;5112895;27;20562;-73
2024/01/12 12:12:37;;;;;;;63.70;39.87;;;6.00;81.90;;;;;;5112912;27;20849;-73
2024/01/12 12:15:04;;;;;;;72.50;40.87;;;5.70;84.10;;;;;;5131494;27;20187;-73
2024/01/12 12:17:31;;;;;;;64.33;39.40;;;5.40;89.20;;;;;;5112699;27;20435;-73
2024/01/12 12:19:57;;;;;;;61.93;38.37;;;5.00;88.80;;;;;;5112999;27;20425;-73
2024/01/12 12:22:24;;;;;;;70.00;39.10;;;4.70;91.80;;;;;;5131219;27;20461;-73